createdAt,value
2018-06-05T00:02:04.890Z,23.40
2018-06-05T00:04:33.393Z,25.53
2018-06-05T00:07:01.828Z,23.43
2018-06-05T00:09:30.245Z,23.10
2018-06-05T00:11:58.652Z,25.83
2018-06-05T00:14:27.105Z,28.80
2018-06-05T00:16:55.593Z,24.70
2018-06-05T00:19:24.020Z,28.00
2018-06-05T00:21:52.392Z,23.80
2018-06-05T00:24:20.812Z,26.80
2018-06-05T00:26:49.266Z,25.13
2018-06-05T00:29:17.653Z,28.90
2018-06-05T00:31:46.080Z,30.50
2018-06-05T00:34:14.489Z,26.53
2018-06-05T00:36:42.916Z,26.43
2018-06-05T00:39:11.387Z,30.13
2018-06-05T00:41:39.805Z,27.33
2018-06-05T00:44:08.237Z,28.47
2018-06-05T00:46:36.685Z,29.20
2018-06-05T00:49:05.263Z,34.13
2018-06-05T00:51:44.865Z,36.37
2018-06-05T00:54:13.307Z,28.03
2018-06-05T00:56:50.001Z,26.20
2018-06-05T00:59:18.411Z,31.37
2018-06-05T01:01:46.888Z,31.63
2018-06-05T01:04:15.481Z,30.73
2018-06-05T01:06:43.960Z,32.40
2018-06-05T01:09:12.393Z,29.40
2018-06-05T01:11:40.832Z,28.13
2018-06-05T01:14:09.301Z,28.97
2018-06-05T01:16:37.693Z,30.60
2018-06-05T01:19:06.137Z,28.80
2018-06-05T01:21:34.555Z,33.37
2018-06-05T01:24:03.006Z,34.10
2018-06-05T01:26:31.481Z,33.10
2018-06-05T01:28:59.896Z,30.87
2018-06-05T01:31:28.320Z,29.10
2018-06-05T01:33:56.725Z,34.43
2018-06-05T01:36:25.271Z,30.90
2018-06-05T01:38:53.853Z,33.43
2018-06-05T01:41:22.246Z,32.33
2018-06-05T01:43:50.749Z,32.97
2018-06-05T01:46:19.158Z,36.37
2018-06-05T01:48:47.585Z,32.03
2018-06-05T01:51:15.986Z,32.93
2018-06-05T01:53:44.419Z,35.70
2018-06-05T01:56:12.927Z,47.80
2018-06-05T01:58:41.523Z,33.53
2018-06-05T02:01:11.287Z,32.20
2018-06-05T02:03:39.766Z,36.13
2018-06-05T02:06:08.272Z,38.73
2018-06-05T02:08:36.676Z,36.03
2018-06-05T02:11:05.084Z,42.90
2018-06-05T02:13:33.509Z,41.00
2018-06-05T02:16:01.961Z,37.73
2018-06-05T02:18:30.428Z,37.77
2018-06-05T02:20:58.863Z,42.43
2018-06-05T02:23:27.321Z,39.60
2018-06-05T02:25:55.869Z,42.03
2018-06-05T02:28:24.894Z,44.50
2018-06-05T02:30:53.345Z,41.00
2018-06-05T02:33:21.733Z,47.97
2018-06-05T02:35:50.281Z,43.47
2018-06-05T02:38:18.785Z,46.47
2018-06-05T02:40:47.285Z,45.07
2018-06-05T02:43:15.715Z,44.97
2018-06-05T02:45:44.222Z,43.53
2018-06-05T02:48:12.703Z,46.60
2018-06-05T02:50:41.185Z,46.50
2018-06-05T02:53:09.577Z,50.23
2018-06-05T02:55:38.011Z,49.43
2018-06-05T02:58:06.435Z,49.77
2018-06-05T03:00:34.931Z,52.57
2018-06-05T03:03:03.450Z,53.47
2018-06-05T03:05:31.875Z,54.27
2018-06-05T03:08:00.283Z,52.10
2018-06-05T03:10:28.741Z,55.90
2018-06-05T03:12:57.161Z,56.50
2018-06-05T03:15:25.899Z,56.73
2018-06-05T03:17:54.321Z,54.43
2018-06-05T03:20:22.756Z,60.50
2018-06-05T03:22:51.190Z,54.17
2018-06-05T03:25:19.674Z,57.03
2018-06-05T03:27:48.260Z,55.73
2018-06-05T03:30:16.678Z,57.10
2018-06-05T03:32:45.272Z,56.83
2018-06-05T03:35:13.732Z,56.37
2018-06-05T03:37:42.196Z,64.03
2018-06-05T03:40:10.626Z,60.90
2018-06-05T03:42:39.060Z,58.80
2018-06-05T03:45:07.164Z,57.10
2018-06-05T03:47:35.662Z,63.33
2018-06-05T03:50:04.125Z,58.27
2018-06-05T03:52:32.685Z,59.77
2018-06-05T03:55:01.106Z,58.50
2018-06-05T03:57:29.520Z,58.50
2018-06-05T03:59:58.064Z,58.00
2018-06-05T04:02:26.478Z,57.20
2018-06-05T04:04:54.894Z,55.90
2018-06-05T04:07:23.544Z,57.40
2018-06-05T04:09:51.954Z,54.90
2018-06-05T04:12:20.399Z,54.43
2018-06-05T04:14:48.852Z,58.03
2018-06-05T04:17:17.340Z,59.03
2018-06-05T04:19:45.745Z,57.67
2018-06-05T04:22:14.248Z,58.30
2018-06-05T04:24:42.710Z,59.83
2018-06-05T04:27:11.202Z,59.37
2018-06-05T04:29:39.580Z,63.00
2018-06-05T04:32:08.170Z,57.87
2018-06-05T04:34:36.640Z,45.87
2018-06-05T04:37:05.233Z,64.67
2018-06-05T04:39:33.707Z,54.30
2018-06-05T04:42:01.829Z,49.33
2018-06-05T04:44:30.280Z,51.87
2018-06-05T04:46:58.700Z,50.77
2018-06-05T04:49:27.348Z,45.00
2018-06-05T04:51:55.844Z,45.90
2018-06-05T04:54:24.292Z,51.20
2018-06-05T04:56:52.739Z,41.73
2018-06-05T04:59:21.491Z,37.63
2018-06-05T05:01:58.762Z,36.90
2018-06-05T05:04:27.204Z,38.50
2018-06-05T05:06:55.592Z,34.77
2018-06-05T05:09:23.992Z,32.43
2018-06-05T05:11:52.477Z,36.47
2018-06-05T05:14:22.212Z,44.80
2018-06-05T05:16:50.743Z,45.10
2018-06-05T05:19:19.194Z,40.67
2018-06-05T05:21:47.644Z,38.33
2018-06-05T05:24:16.147Z,43.60
2018-06-05T05:26:44.794Z,39.27
2018-06-05T05:29:13.245Z,39.50
2018-06-05T05:31:41.752Z,49.70
2018-06-05T05:34:10.136Z,46.97
2018-06-05T05:36:38.620Z,46.50
2018-06-05T05:39:07.597Z,50.93
2018-06-05T05:41:36.052Z,47.20
2018-06-05T05:44:04.652Z,46.60
2018-06-05T05:46:33.171Z,46.70
2018-06-05T05:49:01.616Z,45.23
2018-06-05T05:51:30.132Z,43.63
2018-06-05T05:53:58.547Z,46.00
2018-06-05T05:56:27.055Z,45.23
2018-06-05T05:58:55.566Z,46.57
2018-06-05T06:01:23.998Z,46.30
2018-06-05T06:03:52.423Z,45.00
2018-06-05T06:06:20.968Z,49.20
2018-06-05T06:08:49.599Z,44.07
2018-06-05T06:11:18.312Z,41.50
2018-06-05T06:13:46.762Z,42.87
2018-06-05T06:16:15.250Z,41.53
2018-06-05T06:18:43.748Z,39.33
2018-06-05T06:21:12.248Z,45.37
2018-06-05T06:23:40.976Z,37.83
2018-06-05T06:26:09.517Z,44.87
2018-06-05T06:28:38.582Z,42.97
2018-06-05T06:31:07.052Z,47.30
2018-06-05T06:33:36.702Z,44.53
2018-06-05T06:36:05.395Z,40.63
2018-06-05T06:38:33.920Z,46.33
2018-06-05T06:41:02.403Z,37.87
2018-06-05T06:43:30.835Z,36.10
2018-06-05T06:45:59.769Z,33.40
2018-06-05T06:48:28.185Z,36.70
2018-06-05T06:50:56.668Z,36.40
2018-06-05T06:53:25.121Z,35.70
2018-06-05T06:55:53.748Z,36.90
2018-06-05T06:58:22.378Z,33.43
2018-06-05T07:00:50.920Z,39.90
2018-06-05T07:03:19.334Z,33.80
2018-06-05T07:05:47.866Z,28.67
2018-06-05T07:08:16.284Z,31.03
2018-06-05T07:10:45.049Z,33.13
2018-06-05T07:13:13.561Z,30.63
2018-06-05T07:15:42.118Z,27.77
2018-06-05T07:18:10.696Z,32.97
2018-06-05T07:20:39.203Z,31.80
2018-06-05T07:23:07.641Z,30.47
2018-06-05T07:25:36.144Z,28.97
2018-06-05T07:28:04.652Z,29.10
2018-06-05T07:30:33.080Z,27.20
2018-06-05T07:33:01.516Z,30.43
2018-06-05T07:35:29.987Z,27.97
2018-06-05T07:37:58.440Z,25.90
2018-06-05T07:40:26.883Z,28.73
2018-06-05T07:42:55.487Z,27.07
2018-06-05T07:45:23.901Z,27.23
2018-06-05T07:47:52.346Z,27.43
2018-06-05T07:50:21.143Z,28.10
2018-06-05T07:52:49.616Z,26.80
2018-06-05T07:55:18.257Z,26.73
2018-06-05T07:57:46.703Z,25.17
2018-06-05T08:00:15.141Z,27.20
2018-06-05T08:02:43.722Z,26.97
2018-06-05T08:05:12.168Z,27.43
2018-06-05T08:07:40.653Z,26.80
2018-06-05T08:10:09.314Z,26.53
2018-06-05T08:12:37.817Z,24.73
2018-06-05T08:15:06.417Z,27.10
2018-06-05T08:17:34.864Z,30.60
2018-06-05T08:20:03.517Z,32.00
2018-06-05T08:23:05.009Z,30.00
2018-06-05T08:25:33.489Z,29.23
2018-06-05T08:28:01.971Z,28.00
2018-06-05T08:30:30.415Z,27.47
2018-06-05T08:32:58.832Z,32.80
2018-06-05T08:35:28.038Z,27.87
2018-06-05T08:37:56.593Z,31.57
2018-06-05T08:40:25.582Z,29.43
2018-06-05T08:42:54.643Z,30.13
2018-06-05T08:45:23.099Z,26.33
2018-06-05T08:47:51.644Z,30.80
2018-06-05T08:50:20.036Z,28.90
2018-06-05T08:52:48.602Z,32.83
2018-06-05T08:55:17.248Z,28.50
2018-06-05T08:57:45.749Z,27.10
2018-06-05T09:00:14.492Z,26.53
2018-06-05T09:02:43.024Z,28.50
2018-06-05T09:05:11.489Z,29.93
2018-06-05T09:07:39.993Z,30.20
2018-06-05T09:10:08.460Z,29.70
2018-06-05T09:12:36.880Z,24.77
2018-06-05T09:15:05.365Z,25.90
2018-06-05T09:17:33.832Z,23.83
2018-06-05T09:20:02.236Z,28.60
2018-06-05T09:22:30.690Z,28.00
2018-06-05T09:24:59.080Z,30.93
2018-06-05T09:27:27.504Z,33.67
2018-06-05T09:29:56.028Z,31.73
2018-06-05T09:32:24.465Z,34.27
2018-06-05T09:34:52.860Z,31.57
2018-06-05T09:37:27.698Z,32.17
2018-06-05T09:39:56.172Z,29.10
2018-06-05T09:42:24.626Z,31.80
2018-06-05T09:44:53.057Z,33.57
2018-06-05T09:47:21.532Z,31.90
2018-06-05T09:49:49.984Z,35.33
2018-06-05T09:52:18.442Z,39.90
2018-06-05T09:54:46.936Z,34.67
2018-06-05T09:57:15.368Z,31.30
2018-06-05T09:59:44.052Z,29.63
2018-06-05T10:02:12.488Z,33.13
2018-06-05T10:04:40.949Z,30.50
2018-06-05T10:07:09.404Z,31.97
2018-06-05T10:09:37.836Z,35.97
2018-06-05T10:12:06.469Z,34.47
2018-06-05T10:14:35.099Z,32.73
2018-06-05T10:17:03.528Z,34.20
2018-06-05T10:19:32.002Z,27.73
2018-06-05T10:22:00.510Z,35.70
2018-06-05T10:24:28.934Z,31.40
2018-06-05T10:26:57.444Z,33.17
2018-06-05T10:29:25.840Z,31.87
2018-06-05T10:31:54.252Z,36.53
2018-06-05T10:34:22.676Z,30.97
2018-06-05T10:36:51.407Z,31.20
2018-06-05T10:39:19.988Z,29.63
2018-06-05T10:41:48.459Z,26.67
2018-06-05T10:44:16.940Z,26.27
2018-06-05T10:46:45.596Z,28.30
2018-06-05T10:49:13.951Z,29.83
2018-06-05T10:51:42.614Z,27.27
2018-06-05T10:54:12.057Z,30.33
2018-06-05T10:56:40.584Z,29.77
2018-06-05T10:59:09.441Z,29.17
2018-06-05T11:01:37.880Z,33.13
2018-06-05T11:04:06.366Z,31.90
2018-06-05T11:06:34.800Z,31.10
2018-06-05T11:09:07.512Z,30.67
2018-06-05T11:11:36.052Z,27.47
2018-06-05T11:14:04.524Z,32.90
2018-06-05T11:16:32.949Z,35.73
2018-06-05T11:19:01.365Z,35.53
2018-06-05T11:21:30.081Z,27.87
2018-06-05T11:23:58.500Z,33.20
2018-06-05T11:26:26.949Z,35.63
2018-06-05T11:28:55.390Z,38.90
2018-06-05T11:31:23.868Z,31.83
2018-06-05T11:33:52.260Z,35.30
2018-06-05T11:36:21.164Z,36.07
2018-06-05T11:38:49.629Z,34.87
2018-06-05T11:41:18.088Z,36.00
2018-06-05T11:43:46.595Z,40.20
2018-06-05T11:46:15.051Z,35.20
2018-06-05T11:48:43.683Z,35.30
2018-06-05T11:51:13.398Z,45.97
2018-06-05T11:53:42.251Z,44.37
2018-06-05T11:56:10.813Z,45.07
2018-06-05T11:58:39.355Z,43.20
2018-06-05T12:01:08.009Z,44.73
2018-06-05T12:03:36.663Z,40.80
2018-06-05T12:06:05.250Z,42.73
2018-06-05T12:08:33.777Z,42.97
2018-06-05T12:11:02.191Z,37.90
2018-06-05T12:13:30.616Z,42.47
2018-06-05T12:15:59.075Z,45.37
2018-06-05T12:18:27.601Z,38.77
2018-06-05T12:20:57.065Z,40.63
2018-06-05T12:23:25.556Z,40.17
2018-06-05T12:25:54.016Z,44.87
2018-06-05T12:28:22.443Z,40.23
2018-06-05T12:30:50.896Z,39.03
2018-06-05T12:33:19.522Z,39.70
2018-06-05T12:35:48.028Z,39.60
2018-06-05T12:38:16.511Z,41.50
2018-06-05T12:40:45.632Z,40.60
2018-06-05T12:43:14.955Z,32.87
2018-06-05T12:45:43.406Z,35.63
2018-06-05T12:48:11.921Z,35.80
2018-06-05T12:50:40.377Z,38.20
2018-06-05T12:53:08.811Z,32.40
2018-06-05T12:55:37.394Z,34.13
2018-06-05T12:58:06.025Z,38.37
2018-06-05T13:00:34.532Z,38.13
2018-06-05T13:03:02.947Z,33.10
2018-06-05T13:05:31.590Z,31.83
2018-06-05T13:08:00.057Z,35.57
2018-06-05T13:10:28.477Z,31.27
2018-06-05T13:12:56.979Z,37.73
2018-06-05T13:15:25.441Z,39.10
2018-06-05T13:17:53.860Z,37.60
2018-06-05T13:20:22.312Z,39.83
2018-06-05T13:22:50.857Z,44.87
2018-06-05T13:25:19.222Z,36.17
2018-06-05T13:27:47.673Z,35.50
2018-06-05T13:30:16.095Z,39.50
2018-06-05T13:32:44.522Z,40.00
2018-06-05T13:35:12.920Z,39.20
2018-06-05T13:37:41.426Z,37.73
2018-06-05T13:40:09.820Z,33.00
2018-06-05T13:42:38.260Z,32.57
2018-06-05T13:45:06.690Z,31.93
2018-06-05T13:47:35.139Z,31.20
2018-06-05T13:50:03.568Z,35.67
2018-06-05T13:52:32.087Z,35.20
2018-06-05T13:55:00.454Z,35.27
2018-06-05T13:57:28.896Z,34.57
2018-06-05T13:59:57.447Z,36.23
2018-06-05T14:02:26.215Z,32.03
2018-06-05T14:04:54.653Z,31.03
2018-06-05T14:07:23.154Z,37.50
2018-06-05T14:09:51.722Z,35.37
2018-06-05T14:12:20.401Z,34.57
2018-06-05T14:14:48.840Z,35.23
2018-06-05T14:17:17.361Z,37.37
2018-06-05T14:19:45.887Z,31.17
2018-06-05T14:22:14.296Z,35.30
2018-06-05T14:24:44.130Z,34.97
2018-06-05T14:27:12.777Z,39.97
2018-06-05T14:29:41.533Z,36.70
2018-06-05T14:32:10.005Z,31.83
2018-06-05T14:34:38.425Z,29.53
2018-06-05T14:37:06.932Z,30.40
2018-06-05T14:39:35.336Z,30.27
2018-06-05T14:42:03.759Z,27.97
2018-06-05T14:44:32.635Z,29.13
2018-06-05T14:47:01.025Z,28.33
2018-06-05T14:49:29.995Z,28.50
2018-06-05T14:51:58.164Z,31.90
2018-06-05T14:54:26.600Z,32.50
2018-06-05T14:56:55.025Z,28.20
2018-06-05T14:59:23.461Z,65.27
2018-06-05T15:01:52.015Z,45.13
2018-06-05T15:04:20.416Z,41.43
2018-06-05T15:06:48.841Z,37.20
2018-06-05T15:09:17.274Z,40.13
2018-06-05T15:11:45.701Z,38.17
2018-06-05T15:14:21.035Z,38.60
2018-06-05T15:16:49.654Z,37.97
2018-06-05T15:19:17.951Z,39.87
2018-06-05T15:21:46.448Z,41.17
2018-06-05T15:24:14.961Z,32.30
2018-06-05T15:26:43.398Z,35.40
2018-06-05T15:29:11.921Z,34.23
2018-06-05T15:31:40.829Z,37.47
2018-06-05T15:34:09.492Z,34.50
2018-06-05T15:36:37.928Z,34.07
2018-06-05T15:39:08.578Z,36.33
2018-06-05T15:41:37.495Z,35.03
2018-06-05T15:44:06.028Z,34.00
2018-06-05T15:46:34.664Z,29.53
2018-06-05T15:49:03.188Z,41.43
2018-06-05T15:51:31.678Z,38.73
2018-06-05T15:54:00.192Z,36.30
2018-06-05T15:56:28.684Z,38.43
2018-06-05T15:58:57.104Z,33.57
2018-06-05T16:01:25.692Z,41.87
2018-06-05T16:03:54.245Z,36.43
2018-06-05T16:06:22.741Z,40.53
2018-06-05T16:08:51.172Z,36.47
2018-06-05T16:11:19.620Z,33.47
2018-06-05T16:13:48.188Z,31.97
2018-06-05T16:16:17.372Z,31.87
2018-06-05T16:18:45.777Z,33.47
2018-06-05T16:21:14.472Z,31.27
2018-06-05T16:23:43.324Z,31.17
2018-06-05T16:26:11.786Z,35.03
2018-06-05T16:28:40.184Z,36.43
2018-06-05T16:31:08.751Z,38.50
2018-06-05T16:33:37.194Z,35.20
2018-06-05T16:36:05.750Z,29.60
2018-06-05T16:38:34.262Z,40.13
2018-06-05T16:41:02.673Z,44.13
2018-06-05T16:43:30.844Z,35.50
2018-06-05T16:46:05.792Z,32.93
2018-06-05T16:48:34.244Z,33.70
2018-06-05T16:51:02.660Z,36.00
2018-06-05T16:53:31.271Z,36.83
2018-06-05T16:55:59.720Z,36.00
2018-06-05T16:58:29.475Z,35.03
2018-06-05T17:00:57.854Z,32.17
2018-06-05T17:03:26.388Z,34.43
2018-06-05T17:05:54.998Z,35.73
2018-06-05T17:08:23.492Z,34.73
2018-06-05T17:10:52.162Z,36.40
2018-06-05T17:13:20.753Z,28.80
2018-06-05T17:15:49.586Z,35.13
2018-06-05T17:18:18.034Z,31.10
2018-06-05T17:20:46.596Z,38.17
2018-06-05T17:23:14.996Z,29.80
2018-06-05T17:25:43.472Z,33.63
2018-06-05T17:28:12.502Z,29.50
2018-06-05T17:30:40.940Z,38.37
2018-06-05T17:33:09.436Z,38.37
2018-06-05T17:35:37.983Z,32.37
2018-06-05T17:38:06.476Z,35.57
2018-06-05T17:40:34.975Z,35.23
2018-06-05T17:43:03.440Z,32.03
2018-06-05T17:45:31.935Z,31.97
2018-06-05T17:48:00.648Z,38.23
2018-06-05T17:50:29.242Z,35.10
2018-06-05T17:52:57.688Z,34.40
2018-06-05T17:55:26.252Z,35.50
2018-06-05T17:57:54.714Z,30.00
2018-06-05T18:00:23.214Z,31.60
2018-06-05T18:02:51.690Z,33.60
2018-06-05T18:05:20.309Z,32.70
2018-06-05T18:07:48.800Z,34.07
2018-06-05T18:10:16.986Z,35.60
2018-06-05T18:12:45.455Z,34.23
2018-06-05T18:15:14.262Z,37.17
2018-06-05T18:17:43.480Z,41.37
2018-06-05T18:20:11.954Z,38.97
2018-06-05T18:22:40.446Z,41.27
2018-06-05T18:25:08.914Z,40.17
2018-06-05T18:27:37.572Z,40.63
2018-06-05T18:30:07.028Z,42.73
2018-06-05T18:32:35.536Z,46.27
2018-06-05T18:35:04.016Z,43.17
2018-06-05T18:37:32.513Z,47.00
2018-06-05T18:40:00.959Z,49.90
2018-06-05T18:42:29.409Z,48.17
2018-06-05T18:44:57.851Z,45.67
2018-06-05T18:47:26.372Z,44.30
2018-06-05T18:49:54.951Z,48.73
2018-06-05T18:52:23.380Z,51.60
2018-06-05T18:54:51.805Z,45.30
2018-06-05T18:57:20.383Z,56.37
2018-06-05T18:59:48.859Z,53.17
2018-06-05T19:02:17.459Z,53.37
2018-06-05T19:04:46.035Z,60.00
2018-06-05T19:07:14.534Z,57.13
2018-06-05T19:09:42.965Z,63.23
2018-06-05T19:12:11.413Z,59.60
2018-06-05T19:14:39.840Z,64.70
2018-06-05T19:17:08.445Z,64.80
2018-06-05T19:19:36.881Z,63.93
2018-06-05T19:22:05.330Z,60.63
2018-06-05T19:24:34.883Z,66.80
2018-06-05T19:27:04.333Z,62.03
2018-06-05T19:29:32.847Z,59.27
2018-06-05T19:32:01.271Z,56.13
2018-06-05T19:34:29.700Z,59.13
2018-06-05T19:36:58.284Z,64.07
2018-06-05T19:39:26.401Z,63.00
2018-06-05T19:41:54.943Z,64.63
2018-06-05T19:44:23.417Z,58.43
2018-06-05T19:46:51.960Z,56.97
2018-06-05T19:49:20.949Z,57.67
2018-06-05T19:51:49.905Z,41.07
2018-06-05T19:54:18.348Z,57.97
2018-06-05T19:56:46.797Z,48.17
2018-06-05T19:59:15.293Z,50.80
2018-06-05T20:01:43.973Z,45.80
2018-06-05T20:04:12.437Z,44.00
2018-06-05T20:06:40.895Z,48.20
2018-06-05T20:09:09.429Z,55.70
2018-06-05T20:11:37.833Z,47.57
2018-06-05T20:14:06.359Z,53.50
2018-06-05T20:16:35.103Z,52.07
2018-06-05T20:19:03.900Z,52.97
2018-06-05T20:21:32.374Z,46.63
2018-06-05T20:24:00.833Z,53.30
2018-06-05T20:26:29.311Z,52.60
2018-06-05T20:28:58.101Z,57.80
2018-06-05T20:31:27.603Z,53.30
2018-06-05T20:33:56.091Z,54.50
2018-06-05T20:36:24.567Z,54.20
2018-06-05T20:38:53.014Z,55.37
2018-06-05T20:41:21.657Z,53.10
2018-06-05T20:43:51.040Z,62.87
2018-06-05T20:46:19.548Z,55.47
2018-06-05T20:48:48.098Z,61.63
2018-06-05T20:51:16.491Z,60.17
2018-06-05T20:53:44.982Z,61.67
2018-06-05T20:56:13.441Z,60.93
2018-06-05T20:58:41.827Z,60.50
2018-06-05T21:01:10.303Z,63.33
2018-06-05T21:03:38.821Z,72.93
2018-06-05T21:06:07.459Z,68.80
2018-06-05T21:08:36.123Z,64.90
2018-06-05T21:11:04.568Z,70.50
2018-06-05T21:13:33.138Z,67.53
2018-06-05T21:16:01.609Z,68.40
2018-06-05T21:18:30.173Z,84.40
2018-06-05T21:20:58.631Z,77.80
2018-06-05T21:23:27.087Z,80.30
2018-06-05T21:25:55.578Z,75.03
2018-06-05T21:28:24.961Z,70.43
2018-06-05T21:30:53.418Z,81.63
2018-06-05T21:33:21.959Z,73.90
2018-06-05T21:35:50.605Z,79.53
2018-06-05T21:38:19.129Z,72.70
2018-06-05T21:40:47.550Z,75.27
2018-06-05T21:43:15.995Z,78.40
2018-06-05T21:45:44.388Z,84.90
2018-06-05T21:48:12.886Z,89.70
2018-06-05T21:50:41.813Z,74.10
2018-06-05T21:53:10.444Z,86.90
2018-06-05T21:55:39.078Z,113.10
2018-06-05T21:58:07.678Z,98.73
2018-06-05T22:00:36.176Z,91.93
2018-06-05T22:03:04.744Z,80.40
2018-06-05T22:05:33.202Z,87.77
2018-06-05T22:08:01.674Z,83.90
2018-06-05T22:10:30.145Z,92.73
2018-06-05T22:12:58.596Z,90.50
2018-06-05T22:15:27.108Z,105.30
2018-06-05T22:17:55.540Z,101.27
2018-06-05T22:20:23.998Z,92.43
2018-06-05T22:22:53.125Z,88.90
2018-06-05T22:25:21.745Z,86.80
2018-06-05T22:27:50.212Z,90.00
2018-06-05T22:30:18.721Z,93.00
2018-06-05T22:32:47.175Z,83.77
2018-06-05T22:35:15.616Z,115.13
2018-06-05T22:37:44.112Z,120.57
2018-06-05T22:40:12.571Z,114.73
2018-06-05T22:42:41.009Z,95.53
2018-06-05T22:45:09.414Z,89.20
2018-06-05T22:47:37.933Z,96.17
2018-06-05T22:50:06.672Z,98.43
2018-06-05T22:52:35.141Z,105.13
2018-06-05T22:55:03.589Z,98.03
2018-06-05T22:57:32.065Z,81.93
2018-06-05T23:00:00.503Z,88.77
2018-06-05T23:02:28.978Z,102.00
2018-06-05T23:04:57.452Z,123.63
2018-06-05T23:07:25.936Z,137.73
2018-06-05T23:09:54.397Z,129.20
2018-06-05T23:12:22.819Z,106.33
2018-06-05T23:14:51.245Z,99.53
2018-06-05T23:17:19.682Z,93.07
2018-06-05T23:19:48.148Z,89.20
2018-06-05T23:22:16.637Z,83.80
2018-06-05T23:24:45.168Z,77.13
2018-06-05T23:27:13.996Z,76.73
2018-06-05T23:29:42.497Z,72.07
2018-06-05T23:32:10.915Z,76.30
2018-06-05T23:34:39.336Z,73.60
2018-06-05T23:37:07.817Z,73.10
2018-06-05T23:39:36.255Z,82.60
2018-06-05T23:42:04.707Z,90.80
2018-06-05T23:44:33.126Z,89.67
2018-06-05T23:47:01.668Z,94.10
2018-06-05T23:49:41.746Z,102.27
2018-06-05T23:52:10.765Z,95.90
2018-06-05T23:54:40.081Z,96.10
2018-06-05T23:57:08.584Z,100.07
2018-06-05T23:59:37.008Z,102.13
